sensor_id;sensor_type;location;lat;lon;timestamp;pressure;altitude;pressure_sealevel;temperature;humidity
8717;BME280;4395;48.554;8.820;2023-04-04T00:00:15;96552.16;;;0.32;93.72
8717;BME280;4395;48.554;8.820;2023-04-04T00:02:18;96549.84;;;0.29;94.33
8717;BME280;4395;48.554;8.820;2023-04-04T00:04:22;96552.53;;;0.21;95.89
8717;BME280;4395;48.554;8.820;2023-04-04T00:06:25;96550.22;;;0.18;95.72
8717;BME280;4395;48.554;8.820;2023-04-04T00:08:28;96549.53;;;0.24;95.74
8717;BME280;4395;48.554;8.820;2023-04-04T00:10:31;96516.09;;;0.01;96.41
8717;BME280;4395;48.554;8.820;2023-04-04T00:12:34;96541.66;;;0.16;96.49
8717;BME280;4395;48.554;8.820;2023-04-04T00:14:37;96517.06;;;-0.01;96.59
8717;BME280;4395;48.554;8.820;2023-04-04T00:16:40;96547.97;;;0.07;96.57
8717;BME280;4395;48.554;8.820;2023-04-04T00:18:43;96538.56;;;0.05;96.94
8717;BME280;4395;48.554;8.820;2023-04-04T00:20:47;96543.69;;;-0.10;97.95
8717;BME280;4395;48.554;8.820;2023-04-04T00:22:50;96537.38;;;-0.01;98.12
8717;BME280;4395;48.554;8.820;2023-04-04T00:24:53;96458.13;;;-0.48;98.10
8717;BME280;4395;48.554;8.820;2023-04-04T00:26:55;96528.97;;;0.04;98.27
8717;BME280;4395;48.554;8.820;2023-04-04T00:28:58;96503.09;;;-0.17;97.30
8717;BME280;4395;48.554;8.820;2023-04-04T00:31:01;96526.81;;;0.07;98.47
8717;BME280;4395;48.554;8.820;2023-04-04T00:33:04;96534.41;;;0.10;97.94
8717;BME280;4395;48.554;8.820;2023-04-04T00:35:07;96533.28;;;0.05;97.79
8717;BME280;4395;48.554;8.820;2023-04-04T00:37:12;96529.81;;;0.04;98.18
8717;BME280;4395;48.554;8.820;2023-04-04T00:39:15;96530.19;;;-0.15;99.06
8717;BME280;4395;48.554;8.820;2023-04-04T00:41:18;96525.88;;;-0.16;99.83
8717;BME280;4395;48.554;8.820;2023-04-04T00:43:21;96531.53;;;-0.27;100.00
8717;BME280;4395;48.554;8.820;2023-04-04T00:45:25;96523.94;;;-0.30;100.00
8717;BME280;4395;48.554;8.820;2023-04-04T00:47:29;96517.69;;;-0.29;100.00
8717;BME280;4395;48.554;8.820;2023-04-04T00:49:32;96525.31;;;-0.43;100.00
8717;BME280;4395;48.554;8.820;2023-04-04T00:51:35;96522.03;;;-0.61;100.00
8717;BME280;4395;48.554;8.820;2023-04-04T00:53:39;96511.16;;;-0.74;100.00
8717;BME280;4395;48.554;8.820;2023-04-04T00:55:45;96387.25;;;-1.39;100.00
8717;BME280;4395;48.554;8.820;2023-04-04T00:57:48;96519.88;;;-0.49;100.00
8717;BME280;4395;48.554;8.820;2023-04-04T00:59:51;96506.50;;;-0.48;100.00
8717;BME280;4395;48.554;8.820;2023-04-04T01:01:54;96470.13;;;-0.93;100.00
8717;BME280;4395;48.554;8.820;2023-04-04T01:03:58;96504.03;;;-0.49;100.00
8717;BME280;4395;48.554;8.820;2023-04-04T01:06:01;96516.56;;;-0.51;100.00
8717;BME280;4395;48.554;8.820;2023-04-04T01:08:04;96513.47;;;-0.63;100.00
8717;BME280;4395;48.554;8.820;2023-04-04T01:10:09;96497.31;;;-0.68;100.00
8717;BME280;4395;48.554;8.820;2023-04-04T01:12:12;96506.72;;;-0.74;100.00
8717;BME280;4395;48.554;8.820;2023-04-04T01:14:16;96507.06;;;-0.77;100.00
8717;BME280;4395;48.554;8.820;2023-04-04T01:16:19;96502.94;;;-0.79;100.00
8717;BME280;4395;48.554;8.820;2023-04-04T01:18:23;96504.56;;;-0.78;100.00
8717;BME280;4395;48.554;8.820;2023-04-04T01:20:28;96500.78;;;-0.84;100.00
8717;BME280;4395;48.554;8.820;2023-04-04T01:22:33;96497.81;;;-0.81;100.00
8717;BME280;4395;48.554;8.820;2023-04-04T01:24:38;96492.72;;;-0.82;100.00
8717;BME280;4395;48.554;8.820;2023-04-04T01:26:45;96495.03;;;-1.04;100.00
8717;BME280;4395;48.554;8.820;2023-04-04T01:28:48;96498.50;;;-1.19;100.00
8717;BME280;4395;48.554;8.820;2023-04-04T01:30:52;96491.09;;;-1.16;100.00
8717;BME280;4395;48.554;8.820;2023-04-04T01:32:59;96491.41;;;-1.19;100.00
8717;BME280;4395;48.554;8.820;2023-04-04T01:35:12;96494.03;;;-1.43;100.00
8717;BME280;4395;48.554;8.820;2023-04-04T01:37:28;96483.81;;;-1.30;100.00
8717;BME280;4395;48.554;8.820;2023-04-04T01:39:42;96480.03;;;-1.36;100.00
8717;BME280;4395;48.554;8.820;2023-04-04T01:41:49;96488.44;;;-1.08;100.00
8717;BME280;4395;48.554;8.820;2023-04-04T01:43:52;96454.50;;;-1.35;100.00
8717;BME280;4395;48.554;8.820;2023-04-04T01:45:59;96489.25;;;-1.23;100.00
8717;BME280;4395;48.554;8.820;2023-04-04T01:48:02;96446.25;;;-1.48;100.00
8717;BME280;4395;48.554;8.820;2023-04-04T01:50:07;96486.13;;;-1.27;100.00
8717;BME280;4395;48.554;8.820;2023-04-04T01:52:10;96483.47;;;-1.59;100.00
8717;BME280;4395;48.554;8.820;2023-04-04T01:54:13;96478.88;;;-1.49;100.00
8717;BME280;4395;48.554;8.820;2023-04-04T01:56:17;96492.06;;;-1.25;100.00
8717;BME280;4395;48.554;8.820;2023-04-04T01:58:21;96303.91;;;-2.21;100.00
8717;BME280;4395;48.554;8.820;2023-04-04T02:00:24;96481.84;;;-1.04;100.00
8717;BME280;4395;48.554;8.820;2023-04-04T02:02:27;96484.97;;;-1.08;100.00
8717;BME280;4395;48.554;8.820;2023-04-04T02:04:30;96493.88;;;-1.01;100.00
8717;BME280;4395;48.554;8.820;2023-04-04T02:06:33;96460.41;;;-1.25;100.00
8717;BME280;4395;48.554;8.820;2023-04-04T02:08:37;96483.50;;;-1.03;100.00
8717;BME280;4395;48.554;8.820;2023-04-04T02:10:40;96450.19;;;-1.44;100.00
8717;BME280;4395;48.554;8.820;2023-04-04T02:12:43;96480.84;;;-1.03;100.00
8717;BME280;4395;48.554;8.820;2023-04-04T02:14:48;96485.13;;;-1.02;100.00
8717;BME280;4395;48.554;8.820;2023-04-04T02:16:51;96486.13;;;-1.03;100.00
8717;BME280;4395;48.554;8.820;2023-04-04T02:18:54;96446.25;;;-1.40;100.00
8717;BME280;4395;48.554;8.820;2023-04-04T02:20:57;96489.09;;;-1.14;100.00
8717;BME280;4395;48.554;8.820;2023-04-04T02:23:00;96489.44;;;-1.17;100.00
8717;BME280;4395;48.554;8.820;2023-04-04T02:25:03;96470.31;;;-1.35;100.00
8717;BME280;4395;48.554;8.820;2023-04-04T02:27:07;96484.81;;;-1.15;100.00
8717;BME280;4395;48.554;8.820;2023-04-04T02:29:10;96486.13;;;-1.19;100.00
8717;BME280;4395;48.554;8.820;2023-04-04T02:31:14;96492.56;;;-1.38;100.00
8717;BME280;4395;48.554;8.820;2023-04-04T02:33:17;96491.75;;;-1.22;100.00
8717;BME280;4395;48.554;8.820;2023-04-04T02:35:21;96486.31;;;-1.20;100.00
8717;BME280;4395;48.554;8.820;2023-04-04T02:37:24;96482.50;;;-1.18;100.00
8717;BME280;4395;48.554;8.820;2023-04-04T02:39:29;96484.16;;;-1.17;100.00
8717;BME280;4395;48.554;8.820;2023-04-04T02:41:33;96441.81;;;-1.40;100.00
8717;BME280;4395;48.554;8.820;2023-04-04T02:43:36;96471.28;;;-1.12;100.00
8717;BME280;4395;48.554;8.820;2023-04-04T02:45:42;96481.34;;;-1.15;100.00
8717;BME280;4395;48.554;8.820;2023-04-04T02:47:55;96472.94;;;-1.27;100.00
8717;BME280;4395;48.554;8.820;2023-04-04T02:50:09;96476.09;;;-1.23;100.00
8717;BME280;4395;48.554;8.820;2023-04-04T02:52:13;96470.63;;;-1.30;100.00
8717;BME280;4395;48.554;8.820;2023-04-04T02:54:19;96484.66;;;-1.30;100.00
8717;BME280;4395;48.554;8.820;2023-04-04T02:56:22;96432.06;;;-1.47;100.00
8717;BME280;4395;48.554;8.820;2023-04-04T02:58:25;96461.75;;;-1.29;100.00
8717;BME280;4395;48.554;8.820;2023-04-04T03:00:28;96454.16;;;-1.32;100.00
8717;BME280;4395;48.554;8.820;2023-04-04T03:02:31;96439.66;;;-1.44;100.00
8717;BME280;4395;48.554;8.820;2023-04-04T03:04:35;96475.59;;;-1.35;99.61
8717;BME280;4395;48.554;8.820;2023-04-04T03:06:38;96460.75;;;-1.36;100.00
8717;BME280;4395;48.554;8.820;2023-04-04T03:08:43;96460.09;;;-1.30;100.00
8717;BME280;4395;48.554;8.820;2023-04-04T03:10:46;96476.25;;;-1.25;100.00
8717;BME280;4395;48.554;8.820;2023-04-04T03:12:49;96459.75;;;-1.35;99.82
8717;BME280;4395;48.554;8.820;2023-04-04T03:14:52;96412.63;;;-1.71;100.00
8717;BME280;4395;48.554;8.820;2023-04-04T03:16:55;96445.91;;;-1.53;100.00
8717;BME280;4395;48.554;8.820;2023-04-04T03:18:58;96472.63;;;-1.40;100.00
8717;BME280;4395;48.554;8.820;2023-04-04T03:21:03;96470.13;;;-1.50;100.00
8717;BME280;4395;48.554;8.820;2023-04-04T03:23:06;96479.84;;;-1.58;100.00
8717;BME280;4395;48.554;8.820;2023-04-04T03:25:09;96469.31;;;-1.50;100.00
8717;BME280;4395;48.554;8.820;2023-04-04T03:27:12;96472.94;;;-1.59;100.00
8717;BME280;4395;48.554;8.820;2023-04-04T03:29:15;96476.53;;;-1.69;100.00
8717;BME280;4395;48.554;8.820;2023-04-04T03:31:18;96464.34;;;-1.62;100.00
8717;BME280;4395;48.554;8.820;2023-04-04T03:33:21;96455.63;;;-1.70;100.00
8717;BME280;4395;48.554;8.820;2023-04-04T03:35:25;96475.69;;;-1.77;100.00
8717;BME280;4395;48.554;8.820;2023-04-04T03:37:29;96428.06;;;-2.00;100.00
8717;BME280;4395;48.554;8.820;2023-04-04T03:39:32;96472.59;;;-1.65;100.00
8717;BME280;4395;48.554;8.820;2023-04-04T03:41:37;96340.06;;;-2.48;100.00
8717;BME280;4395;48.554;8.820;2023-04-04T03:43:40;96464.00;;;-1.75;100.00
8717;BME280;4395;48.554;8.820;2023-04-04T03:45:43;96467.94;;;-1.87;100.00
8717;BME280;4395;48.554;8.820;2023-04-04T03:47:46;96429.03;;;-2.09;100.00
8717;BME280;4395;48.554;8.820;2023-04-04T03:49:49;96465.66;;;-1.82;100.00
8717;BME280;4395;48.554;8.820;2023-04-04T03:51:53;96443.72;;;-1.90;100.00
8717;BME280;4395;48.554;8.820;2023-04-04T03:53:57;96459.69;;;-2.00;100.00
8717;BME280;4395;48.554;8.820;2023-04-04T03:56:00;96466.09;;;-2.03;100.00
8717;BME280;4395;48.554;8.820;2023-04-04T03:58:03;96464.31;;;-1.94;100.00
8717;BME280;4395;48.554;8.820;2023-04-04T04:00:07;96468.28;;;-1.82;100.00
8717;BME280;4395;48.554;8.820;2023-04-04T04:02:17;96466.66;;;-1.75;100.00
8717;BME280;4395;48.554;8.820;2023-04-04T04:04:20;96458.06;;;-1.77;100.00
8717;BME280;4395;48.554;8.820;2023-04-04T04:06:23;96464.47;;;-1.87;100.00
8717;BME280;4395;48.554;8.820;2023-04-04T04:08:26;96475.84;;;-1.87;100.00
8717;BME280;4395;48.554;8.820;2023-04-04T04:10:30;96462.81;;;-1.97;100.00
8717;BME280;4395;48.554;8.820;2023-04-04T04:12:35;96473.84;;;-1.93;100.00
8717;BME280;4395;48.554;8.820;2023-04-04T04:14:38;96478.47;;;-1.87;100.00
8717;BME280;4395;48.554;8.820;2023-04-04T04:16:42;96476.50;;;-1.93;100.00
8717;BME280;4395;48.554;8.820;2023-04-04T04:18:49;96482.41;;;-1.99;100.00
8717;BME280;4395;48.554;8.820;2023-04-04T04:21:01;96480.09;;;-2.02;100.00
8717;BME280;4395;48.554;8.820;2023-04-04T04:23:05;96465.59;;;-2.06;100.00
8717;BME280;4395;48.554;8.820;2023-04-04T04:25:08;96479.56;;;-2.06;100.00
8717;BME280;4395;48.554;8.820;2023-04-04T04:27:15;96476.06;;;-2.22;100.00
8717;BME280;4395;48.554;8.820;2023-04-04T04:29:18;96431.03;;;-2.53;100.00
8717;BME280;4395;48.554;8.820;2023-04-04T04:31:21;96388.94;;;-2.79;100.00
8717;BME280;4395;48.554;8.820;2023-04-04T04:33:27;96401.44;;;-2.81;100.00
8717;BME280;4395;48.554;8.820;2023-04-04T04:35:35;96329.47;;;-3.40;100.00
8717;BME280;4395;48.554;8.820;2023-04-04T04:37:38;96471.69;;;-2.48;100.00
8717;BME280;4395;48.554;8.820;2023-04-04T04:39:42;96478.91;;;-2.50;100.00
8717;BME280;4395;48.554;8.820;2023-04-04T04:42:05;96476.31;;;-2.42;100.00
8717;BME280;4395;48.554;8.820;2023-04-04T04:44:12;96436.63;;;-2.82;100.00
8717;BME280;4395;48.554;8.820;2023-04-04T04:46:15;96468.03;;;-2.55;100.00
8717;BME280;4395;48.554;8.820;2023-04-04T04:48:18;96480.44;;;-2.39;100.00
8717;BME280;4395;48.554;8.820;2023-04-04T04:50:26;96451.97;;;-2.44;100.00
8717;BME280;4395;48.554;8.820;2023-04-04T04:52:29;96475.06;;;-2.30;100.00
8717;BME280;4395;48.554;8.820;2023-04-04T04:54:32;96480.63;;;-2.33;100.00
8717;BME280;4395;48.554;8.820;2023-04-04T04:56:35;96477.72;;;-2.21;100.00
8717;BME280;4395;48.554;8.820;2023-04-04T04:58:42;96490.84;;;-2.30;100.00
8717;BME280;4395;48.554;8.820;2023-04-04T05:00:55;96474.00;;;-2.45;100.00
8717;BME280;4395;48.554;8.820;2023-04-04T05:03:06;96482.16;;;-2.22;100.00
8717;BME280;4395;48.554;8.820;2023-04-04T05:05:17;96486.34;;;-2.45;100.00
8717;BME280;4395;48.554;8.820;2023-04-04T05:07:19;96490.09;;;-2.48;100.00
8717;BME280;4395;48.554;8.820;2023-04-04T05:09:23;96498.41;;;-2.61;100.00
8717;BME280;4395;48.554;8.820;2023-04-04T05:11:25;96420.34;;;-3.12;100.00
8717;BME280;4395;48.554;8.820;2023-04-04T05:13:29;96486.34;;;-2.45;100.00
8717;BME280;4395;48.554;8.820;2023-04-04T05:15:31;96490.38;;;-2.59;100.00
8717;BME280;4395;48.554;8.820;2023-04-04T05:17:37;96492.13;;;-2.42;100.00
8717;BME280;4395;48.554;8.820;2023-04-04T05:19:42;96496.78;;;-2.28;100.00
8717;BME280;4395;48.554;8.820;2023-04-04T05:21:49;96491.56;;;-2.19;100.00
8717;BME280;4395;48.554;8.820;2023-04-04T05:24:02;96496.84;;;-2.11;100.00
8717;BME280;4395;48.554;8.820;2023-04-04T05:26:06;96497.28;;;-2.24;100.00
8717;BME280;4395;48.554;8.820;2023-04-04T05:28:12;96502.09;;;-2.19;100.00
8717;BME280;4395;48.554;8.820;2023-04-04T05:30:15;96502.28;;;-2.13;100.00
8717;BME280;4395;48.554;8.820;2023-04-04T05:32:28;96502.16;;;-2.03;100.00
8717;BME280;4395;48.554;8.820;2023-04-04T05:34:41;96484.72;;;-1.88;100.00
8717;BME280;4395;48.554;8.820;2023-04-04T05:36:49;96486.19;;;-1.93;100.00
8717;BME280;4395;48.554;8.820;2023-04-04T05:38:53;96496.56;;;-2.00;100.00
8717;BME280;4395;48.554;8.820;2023-04-04T05:41:01;96512.72;;;-1.87;100.00
8717;BME280;4395;48.554;8.820;2023-04-04T05:43:04;96495.97;;;-1.78;100.00
8717;BME280;4395;48.554;8.820;2023-04-04T05:45:17;96498.94;;;-1.73;100.00
8717;BME280;4395;48.554;8.820;2023-04-04T05:47:19;96491.38;;;-1.59;100.00
8717;BME280;4395;48.554;8.820;2023-04-04T05:49:24;96494.00;;;-1.59;100.00
8717;BME280;4395;48.554;8.820;2023-04-04T05:51:32;96513.13;;;-1.57;100.00
8717;BME280;4395;48.554;8.820;2023-04-04T05:53:46;96510.34;;;-1.56;100.00
8717;BME280;4395;48.554;8.820;2023-04-04T05:56:01;96510.16;;;-1.54;100.00
8717;BME280;4395;48.554;8.820;2023-04-04T05:58:06;96510.03;;;-1.45;100.00
8717;BME280;4395;48.554;8.820;2023-04-04T06:00:20;96503.59;;;-1.50;100.00
8717;BME280;4395;48.554;8.820;2023-04-04T06:02:34;96513.66;;;-1.38;100.00
8717;BME280;4395;48.554;8.820;2023-04-04T06:04:38;96505.91;;;-1.31;100.00
8717;BME280;4395;48.554;8.820;2023-04-04T06:06:45;96521.75;;;-1.31;100.00
8717;BME280;4395;48.554;8.820;2023-04-04T06:08:48;96512.81;;;-1.46;100.00
8717;BME280;4395;48.554;8.820;2023-04-04T06:10:54;96516.13;;;-1.36;100.00
8717;BME280;4395;48.554;8.820;2023-04-04T06:12:57;96519.59;;;-1.19;100.00
8717;BME280;4395;48.554;8.820;2023-04-04T06:15:00;96507.91;;;-1.09;100.00
8717;BME280;4395;48.554;8.820;2023-04-04T06:17:03;96511.03;;;-1.05;100.00
8717;BME280;4395;48.554;8.820;2023-04-04T06:19:06;96506.56;;;-0.97;100.00
8717;BME280;4395;48.554;8.820;2023-04-04T06:21:09;96511.34;;;-1.00;100.00
8717;BME280;4395;48.554;8.820;2023-04-04T06:23:15;96512.69;;;-0.96;100.00
8717;BME280;4395;48.554;8.820;2023-04-04T06:25:20;96518.78;;;-0.87;99.77
8717;BME280;4395;48.554;8.820;2023-04-04T06:27:24;96513.63;;;-0.73;97.80
8717;BME280;4395;48.554;8.820;2023-04-04T06:29:27;96371.59;;;-1.57;96.50
8717;BME280;4395;48.554;8.820;2023-04-04T06:31:32;96507.34;;;-0.63;96.29
8717;BME280;4395;48.554;8.820;2023-04-04T06:33:41;96504.06;;;-0.66;95.75
8717;BME280;4395;48.554;8.820;2023-04-04T06:35:44;96509.81;;;-0.62;95.98
8717;BME280;4395;48.554;8.820;2023-04-04T06:37:53;96510.13;;;-0.49;95.08
8717;BME280;4395;48.554;8.820;2023-04-04T06:39:58;96503.00;;;-0.40;94.64
8717;BME280;4395;48.554;8.820;2023-04-04T06:42:02;96507.41;;;-0.24;93.91
8717;BME280;4395;48.554;8.820;2023-04-04T06:44:08;96502.41;;;-0.11;93.13
8717;BME280;4395;48.554;8.820;2023-04-04T06:46:11;96511.47;;;0.03;92.42
8717;BME280;4395;48.554;8.820;2023-04-04T06:48:14;96503.69;;;0.09;91.34
8717;BME280;4395;48.554;8.820;2023-04-04T06:50:17;96506.91;;;0.27;90.23
8717;BME280;4395;48.554;8.820;2023-04-04T06:52:21;96504.84;;;0.07;90.15
8717;BME280;4395;48.554;8.820;2023-04-04T06:54:25;96489.78;;;0.15;89.07
8717;BME280;4395;48.554;8.820;2023-04-04T06:56:29;96494.81;;;0.33;88.92
8717;BME280;4395;48.554;8.820;2023-04-04T06:58:32;96499.38;;;0.39;86.53
8717;BME280;4395;48.554;8.820;2023-04-04T07:00:35;96506.94;;;0.50;84.46
8717;BME280;4395;48.554;8.820;2023-04-04T07:02:39;96503.66;;;0.71;83.04
8717;BME280;4395;48.554;8.820;2023-04-04T07:04:42;96505.41;;;0.79;80.00
8717;BME280;4395;48.554;8.820;2023-04-04T07:06:44;96492.59;;;0.90;78.58
8717;BME280;4395;48.554;8.820;2023-04-04T07:08:47;96500.22;;;1.08;78.94
8717;BME280;4395;48.554;8.820;2023-04-04T07:10:50;96451.78;;;0.85;77.11
8717;BME280;4395;48.554;8.820;2023-04-04T07:12:54;96484.78;;;1.12;77.03
8717;BME280;4395;48.554;8.820;2023-04-04T07:14:57;96501.78;;;1.17;75.94
8717;BME280;4395;48.554;8.820;2023-04-04T07:17:00;96496.53;;;1.32;75.69
8717;BME280;4395;48.554;8.820;2023-04-04T07:19:17;96500.09;;;1.39;75.57
8717;BME280;4395;48.554;8.820;2023-04-04T07:21:20;96489.41;;;1.47;73.63
8717;BME280;4395;48.554;8.820;2023-04-04T07:23:23;96488.69;;;1.53;72.98
8717;BME280;4395;48.554;8.820;2023-04-04T07:25:26;96461.34;;;1.23;73.70
8717;BME280;4395;48.554;8.820;2023-04-04T07:27:29;96438.97;;;1.26;72.31
8717;BME280;4395;48.554;8.820;2023-04-04T07:29:33;96450.50;;;1.33;70.73
8717;BME280;4395;48.554;8.820;2023-04-04T07:31:37;96489.63;;;1.60;69.41
8717;BME280;4395;48.554;8.820;2023-04-04T07:33:40;96493.81;;;1.70;70.25
8717;BME280;4395;48.554;8.820;2023-04-04T07:35:43;96501.84;;;1.91;70.01
8717;BME280;4395;48.554;8.820;2023-04-04T07:37:45;96497.91;;;2.02;69.73
8717;BME280;4395;48.554;8.820;2023-04-04T07:39:48;96507.69;;;2.01;67.30
8717;BME280;4395;48.554;8.820;2023-04-04T07:41:51;96502.78;;;1.98;66.88
8717;BME280;4395;48.554;8.820;2023-04-04T07:43:54;96497.75;;;1.88;66.35
8717;BME280;4395;48.554;8.820;2023-04-04T07:45:58;96497.84;;;1.95;67.08
8717;BME280;4395;48.554;8.820;2023-04-04T07:48:01;96495.09;;;2.03;66.85
8717;BME280;4395;48.554;8.820;2023-04-04T07:50:05;96501.81;;;2.20;65.08
8717;BME280;4395;48.554;8.820;2023-04-04T07:52:08;96407.31;;;1.47;66.05
8717;BME280;4395;48.554;8.820;2023-04-04T07:54:11;96496.28;;;2.01;64.83
8717;BME280;4395;48.554;8.820;2023-04-04T07:56:14;96513.41;;;2.34;65.33
8717;BME280;4395;48.554;8.820;2023-04-04T07:58:16;96498.91;;;2.51;64.56
8717;BME280;4395;48.554;8.820;2023-04-04T08:00:20;96489.13;;;2.52;63.39
8717;BME280;4395;48.554;8.820;2023-04-04T08:02:27;96499.19;;;2.56;63.54
8717;BME280;4395;48.554;8.820;2023-04-04T08:04:30;96499.00;;;2.58;63.48
8717;BME280;4395;48.554;8.820;2023-04-04T08:06:33;96501.00;;;2.56;62.18
8717;BME280;4395;48.554;8.820;2023-04-04T08:08:37;96495.81;;;2.63;62.70
8717;BME280;4395;48.554;8.820;2023-04-04T08:10:41;96498.41;;;2.77;62.15
8717;BME280;4395;48.554;8.820;2023-04-04T08:12:46;96501.69;;;2.79;62.48
8717;BME280;4395;48.554;8.820;2023-04-04T08:14:49;96502.19;;;2.89;62.17
8717;BME280;4395;48.554;8.820;2023-04-04T08:16:52;96497.00;;;3.03;61.72
8717;BME280;4395;48.554;8.820;2023-04-04T08:18:56;96490.44;;;2.99;62.16
8717;BME280;4395;48.554;8.820;2023-04-04T08:21:00;96507.78;;;2.95;61.13
8717;BME280;4395;48.554;8.820;2023-04-04T08:23:03;96421.78;;;2.53;60.23
8717;BME280;4395;48.554;8.820;2023-04-04T08:25:07;96505.47;;;3.13;59.83
8717;BME280;4395;48.554;8.820;2023-04-04T08:27:10;96502.47;;;3.44;60.54
8717;BME280;4395;48.554;8.820;2023-04-04T08:29:13;96494.53;;;3.50;57.59
8717;BME280;4395;48.554;8.820;2023-04-04T08:31:16;96494.06;;;3.40;57.61
8717;BME280;4395;48.554;8.820;2023-04-04T08:33:19;96498.69;;;3.60;57.35
8717;BME280;4395;48.554;8.820;2023-04-04T08:35:25;96425.13;;;3.32;58.30
8717;BME280;4395;48.554;8.820;2023-04-04T08:37:28;96499.22;;;3.76;57.90
8717;BME280;4395;48.554;8.820;2023-04-04T08:39:31;96500.34;;;3.95;55.17
8717;BME280;4395;48.554;8.820;2023-04-04T08:41:34;96495.03;;;3.95;54.86
8717;BME280;4395;48.554;8.820;2023-04-04T08:43:38;96497.47;;;3.90;55.28
8717;BME280;4395;48.554;8.820;2023-04-04T08:45:44;96490.81;;;4.14;53.96
8717;BME280;4395;48.554;8.820;2023-04-04T08:47:48;96440.34;;;3.86;54.11
8717;BME280;4395;48.554;8.820;2023-04-04T08:49:53;96501.31;;;4.29;53.42
8717;BME280;4395;48.554;8.820;2023-04-04T08:51:58;96480.22;;;4.20;52.63
8717;BME280;4395;48.554;8.820;2023-04-04T08:54:03;96495.88;;;4.50;53.50
8717;BME280;4395;48.554;8.820;2023-04-04T08:56:06;96489.97;;;4.61;51.67
8717;BME280;4395;48.554;8.820;2023-04-04T08:58:09;96494.69;;;4.66;50.92
8717;BME280;4395;48.554;8.820;2023-04-04T09:00:13;96501.47;;;4.75;51.73
8717;BME280;4395;48.554;8.820;2023-04-04T09:02:22;96474.63;;;4.70;50.58
8717;BME280;4395;48.554;8.820;2023-04-04T09:04:28;96499.66;;;4.89;50.92
8717;BME280;4395;48.554;8.820;2023-04-04T09:06:33;96497.81;;;4.89;50.11
8717;BME280;4395;48.554;8.820;2023-04-04T09:08:38;96502.13;;;4.90;49.44
8717;BME280;4395;48.554;8.820;2023-04-04T09:10:42;96499.72;;;5.15;49.52
8717;BME280;4395;48.554;8.820;2023-04-04T09:12:46;96489.91;;;5.22;48.96
8717;BME280;4395;48.554;8.820;2023-04-04T09:14:50;96506.25;;;4.99;49.59
8717;BME280;4395;48.554;8.820;2023-04-04T09:16:53;96496.63;;;5.05;49.15
8717;BME280;4395;48.554;8.820;2023-04-04T09:18:56;96435.50;;;4.57;48.82
8717;BME280;4395;48.554;8.820;2023-04-04T09:20:58;96498.88;;;5.08;49.30
8717;BME280;4395;48.554;8.820;2023-04-04T09:23:04;96462.19;;;4.97;48.25
8717;BME280;4395;48.554;8.820;2023-04-04T09:25:09;96495.19;;;5.09;47.05
8717;BME280;4395;48.554;8.820;2023-04-04T09:27:14;96460.97;;;5.19;48.16
8717;BME280;4395;48.554;8.820;2023-04-04T09:29:17;96494.41;;;5.35;47.65
8717;BME280;4395;48.554;8.820;2023-04-04T09:31:23;96506.31;;;5.65;47.53
8717;BME280;4395;48.554;8.820;2023-04-04T09:33:26;96487.00;;;5.83;46.60
8717;BME280;4395;48.554;8.820;2023-04-04T09:35:31;96491.09;;;5.79;47.29
8717;BME280;4395;48.554;8.820;2023-04-04T09:37:34;96498.44;;;6.10;47.49
8717;BME280;4395;48.554;8.820;2023-04-04T09:39:37;96492.72;;;6.06;46.26
8717;BME280;4395;48.554;8.820;2023-04-04T09:41:43;96501.31;;;6.15;45.62
8717;BME280;4395;48.554;8.820;2023-04-04T09:43:46;96492.63;;;6.33;45.39
8717;BME280;4395;48.554;8.820;2023-04-04T09:45:50;96501.25;;;6.35;46.22
8717;BME280;4395;48.554;8.820;2023-04-04T09:47:54;96504.28;;;6.45;44.74
8717;BME280;4395;48.554;8.820;2023-04-04T09:49:57;96500.16;;;6.49;44.08
8717;BME280;4395;48.554;8.820;2023-04-04T09:52:00;96503.06;;;6.41;44.17
8717;BME280;4395;48.554;8.820;2023-04-04T09:54:04;96498.69;;;6.60;43.79
8717;BME280;4395;48.554;8.820;2023-04-04T09:56:13;96490.63;;;6.66;44.56
8717;BME280;4395;48.554;8.820;2023-04-04T09:58:22;96508.25;;;7.12;44.18
8717;BME280;4395;48.554;8.820;2023-04-04T10:00:27;96456.41;;;6.88;42.95
8717;BME280;4395;48.554;8.820;2023-04-04T10:02:30;96505.22;;;7.33;43.83
8717;BME280;4395;48.554;8.820;2023-04-04T10:04:34;96501.13;;;7.31;43.44
8717;BME280;4395;48.554;8.820;2023-04-04T10:06:36;96484.34;;;7.17;43.12
8717;BME280;4395;48.554;8.820;2023-04-04T10:08:40;96496.16;;;7.34;44.11
8717;BME280;4395;48.554;8.820;2023-04-04T10:10:46;96502.72;;;7.07;43.92
8717;BME280;4395;48.554;8.820;2023-04-04T10:13:10;96490.47;;;7.24;43.43
8717;BME280;4395;48.554;8.820;2023-04-04T10:15:15;96500.66;;;7.09;43.42
8717;BME280;4395;48.554;8.820;2023-04-04T10:17:18;96491.56;;;7.41;43.54
8717;BME280;4395;48.554;8.820;2023-04-04T10:19:21;96482.34;;;7.37;43.66
8717;BME280;4395;48.554;8.820;2023-04-04T10:21:25;96484.47;;;7.54;43.29
8717;BME280;4395;48.554;8.820;2023-04-04T10:23:28;96454.53;;;7.20;43.25
8717;BME280;4395;48.554;8.820;2023-04-04T10:25:31;96488.28;;;7.15;42.75
8717;BME280;4395;48.554;8.820;2023-04-04T10:27:34;96487.97;;;7.29;43.53
8717;BME280;4395;48.554;8.820;2023-04-04T10:29:39;96489.06;;;7.47;42.24
8717;BME280;4395;48.554;8.820;2023-04-04T10:31:44;96483.88;;;7.77;42.08
8717;BME280;4395;48.554;8.820;2023-04-04T10:33:59;96490.03;;;7.77;41.73
8717;BME280;4395;48.554;8.820;2023-04-04T10:36:07;96489.22;;;7.77;41.99
8717;BME280;4395;48.554;8.820;2023-04-04T10:38:11;96447.78;;;7.61;41.57
8717;BME280;4395;48.554;8.820;2023-04-04T10:40:16;96451.81;;;7.70;41.67
8717;BME280;4395;48.554;8.820;2023-04-04T10:42:21;96484.59;;;8.09;40.93
8717;BME280;4395;48.554;8.820;2023-04-04T10:44:28;96480.88;;;7.41;42.52
8717;BME280;4395;48.554;8.820;2023-04-04T10:46:33;96443.66;;;7.40;42.99
8717;BME280;4395;48.554;8.820;2023-04-04T10:48:39;96485.22;;;8.47;41.60
8717;BME280;4395;48.554;8.820;2023-04-04T10:50:42;96491.69;;;8.58;39.90
8717;BME280;4395;48.554;8.820;2023-04-04T10:52:46;96490.94;;;8.99;39.32
8717;BME280;4395;48.554;8.820;2023-04-04T10:54:51;96485.69;;;9.04;38.88
8717;BME280;4395;48.554;8.820;2023-04-04T10:56:56;96475.78;;;8.45;39.17
8717;BME280;4395;48.554;8.820;2023-04-04T10:59:08;96475.84;;;8.86;40.10
8717;BME280;4395;48.554;8.820;2023-04-04T11:01:12;96485.06;;;8.60;40.96
8717;BME280;4395;48.554;8.820;2023-04-04T11:03:17;96467.25;;;8.96;38.57
8717;BME280;4395;48.554;8.820;2023-04-04T11:05:22;96480.34;;;9.04;38.71
8717;BME280;4395;48.554;8.820;2023-04-04T11:07:27;96465.75;;;9.00;38.52
8717;BME280;4395;48.554;8.820;2023-04-04T11:09:52;96465.84;;;8.63;39.68
8717;BME280;4395;48.554;8.820;2023-04-04T11:12:07;96467.44;;;9.24;38.99
8717;BME280;4395;48.554;8.820;2023-04-04T11:14:11;96449.63;;;8.58;39.10
8717;BME280;4395;48.554;8.820;2023-04-04T11:16:16;96453.81;;;8.18;38.09
8717;BME280;4395;48.554;8.820;2023-04-04T11:18:22;96454.00;;;7.80;41.82